Akutan, Alaska
Current Conditions -  °F | °C
As of 7:15 PM on Wednesday 17 Dec 2014 (Local Time) from PAUT Reporting Station
Scattered Clouds Scattered Clouds  
Wind Chill: 27°   Ceiling: Unl
Heat Index: 37°   Visibility: 10mi
Dew Point: 28°   Wind: 17mph
Humidity: 72%   Direction: 320°NW
Pressure: 29.33"   Gusts: 24mph
Location:  54.14°N, 165.77°W
Report Text: PAUT 180415Z AUTO 32015G21KT 10SM SCT045 SCT095 03/M02 A2933 RMK AO2 T00261020
Loading
Personal Weather Stations






























Interactive Weather Map New forecast layout! Learn more

10-Day Weather Forecast

Advertisements
Track Severe Weather on mobile